sensor_id;sensor_type;location;lat;lon;timestamp;pressure;altitude;pressure_sealevel;temperature;humidity
54816;BME280;40715;55.752;37.884;2023-02-20T00:01:00;96874.91;;;25.18;27.67
54816;BME280;40715;55.752;37.884;2023-02-20T00:03:27;96878.00;;;25.15;27.35
54816;BME280;40715;55.752;37.884;2023-02-20T00:05:54;96872.00;;;25.13;27.82
54816;BME280;40715;55.752;37.884;2023-02-20T00:08:21;96870.91;;;25.07;26.45
54816;BME280;40715;55.752;37.884;2023-02-20T00:10:49;96860.72;;;25.03;25.77
54816;BME280;40715;55.752;37.884;2023-02-20T00:13:16;96869.81;;;25.02;27.11
54816;BME280;40715;55.752;37.884;2023-02-20T00:15:42;96876.03;;;25.02;26.55
54816;BME280;40715;55.752;37.884;2023-02-20T00:18:10;96870.22;;;24.98;26.33
54816;BME280;40715;55.752;37.884;2023-02-20T00:20:36;96871.41;;;24.96;25.01
54816;BME280;40715;55.752;37.884;2023-02-20T00:23:03;96874.50;;;24.93;25.08
54816;BME280;40715;55.752;37.884;2023-02-20T00:25:30;96872.84;;;24.92;24.29
54816;BME280;40715;55.752;37.884;2023-02-20T00:27:57;96875.91;;;24.89;24.71
54816;BME280;40715;55.752;37.884;2023-02-20T00:30:24;96871.94;;;24.85;25.33
54816;BME280;40715;55.752;37.884;2023-02-20T00:32:53;96871.28;;;24.83;25.94
54816;BME280;40715;55.752;37.884;2023-02-20T00:35:21;96872.53;;;24.80;25.84
54816;BME280;40715;55.752;37.884;2023-02-20T00:37:49;96862.09;;;24.77;25.90
54816;BME280;40715;55.752;37.884;2023-02-20T00:40:19;96868.16;;;24.79;26.39
54816;BME280;40715;55.752;37.884;2023-02-20T00:42:46;96873.16;;;24.82;25.65
54816;BME280;40715;55.752;37.884;2023-02-20T00:45:15;96868.84;;;24.88;26.27
54816;BME280;40715;55.752;37.884;2023-02-20T00:47:42;96853.97;;;24.92;26.75
54816;BME280;40715;55.752;37.884;2023-02-20T00:50:12;96871.50;;;25.03;26.12
54816;BME280;40715;55.752;37.884;2023-02-20T00:52:38;96858.91;;;25.10;26.57
54816;BME280;40715;55.752;37.884;2023-02-20T00:55:06;96871.59;;;25.16;25.76
54816;BME280;40715;55.752;37.884;2023-02-20T00:57:33;96859.41;;;25.20;24.34
54816;BME280;40715;55.752;37.884;2023-02-20T01:00:00;96865.88;;;25.26;24.48
54816;BME280;40715;55.752;37.884;2023-02-20T01:02:31;96861.78;;;25.30;26.09
54816;BME280;40715;55.752;37.884;2023-02-20T01:04:58;96861.59;;;25.31;26.13
54816;BME280;40715;55.752;37.884;2023-02-20T01:07:25;96856.63;;;25.35;26.76
54816;BME280;40715;55.752;37.884;2023-02-20T01:09:51;96867.03;;;25.38;26.62
54816;BME280;40715;55.752;37.884;2023-02-20T01:12:18;96866.84;;;25.40;26.72
54816;BME280;40715;55.752;37.884;2023-02-20T01:14:45;96854.34;;;25.32;26.92
54816;BME280;40715;55.752;37.884;2023-02-20T01:17:12;96869.72;;;25.38;26.69
54816;BME280;40715;55.752;37.884;2023-02-20T01:19:42;96863.50;;;25.38;25.36
54816;BME280;40715;55.752;37.884;2023-02-20T01:22:09;96867.88;;;25.39;25.44
54816;BME280;40715;55.752;37.884;2023-02-20T01:24:36;96862.03;;;25.35;25.84
54816;BME280;40715;55.752;37.884;2023-02-20T01:27:03;96859.06;;;25.30;26.29
54816;BME280;40715;55.752;37.884;2023-02-20T01:29:30;96870.31;;;25.33;26.20
54816;BME280;40715;55.752;37.884;2023-02-20T01:31:57;96859.06;;;25.30;26.64
54816;BME280;40715;55.752;37.884;2023-02-20T01:34:24;96869.00;;;25.29;26.58
54816;BME280;40715;55.752;37.884;2023-02-20T01:36:53;96866.28;;;25.23;27.09
54816;BME280;40715;55.752;37.884;2023-02-20T01:39:25;96869.41;;;25.26;27.16
54816;BME280;40715;55.752;37.884;2023-02-20T01:42:02;96879.56;;;25.24;27.28
54816;BME280;40715;55.752;37.884;2023-02-20T01:44:36;96872.88;;;25.20;27.18
54816;BME280;40715;55.752;37.884;2023-02-20T01:47:07;96872.63;;;25.15;27.20
54816;BME280;40715;55.752;37.884;2023-02-20T01:49:41;96881.56;;;25.15;27.20
54816;BME280;40715;55.752;37.884;2023-02-20T01:52:18;96875.69;;;25.12;27.49
54816;BME280;40715;55.752;37.884;2023-02-20T01:54:50;96882.31;;;25.09;27.36
54816;BME280;40715;55.752;37.884;2023-02-20T01:57:21;96874.63;;;25.06;27.42
54816;BME280;40715;55.752;37.884;2023-02-20T01:59:52;96877.03;;;25.01;25.66
54816;BME280;40715;55.752;37.884;2023-02-20T02:02:23;96877.91;;;25.02;26.74
54816;BME280;40715;55.752;37.884;2023-02-20T02:04:51;96882.00;;;24.97;27.04
54816;BME280;40715;55.752;37.884;2023-02-20T02:07:18;96879.69;;;24.94;27.43
54816;BME280;40715;55.752;37.884;2023-02-20T02:09:52;96886.94;;;24.94;27.63
54816;BME280;40715;55.752;37.884;2023-02-20T02:12:22;96894.19;;;24.93;27.60
54816;BME280;40715;55.752;37.884;2023-02-20T02:14:49;96894.97;;;24.87;27.38
54816;BME280;40715;55.752;37.884;2023-02-20T02:27:21;96877.53;;;24.83;27.39
54816;BME280;40715;55.752;37.884;2023-02-20T02:30:10;96888.00;;;24.78;27.62
54816;BME280;40715;55.752;37.884;2023-02-20T02:41:59;96901.28;;;25.01;27.47
54816;BME280;40715;55.752;37.884;2023-02-20T02:44:31;96900.84;;;24.97;27.82
54816;BME280;40715;55.752;37.884;2023-02-20T02:47:05;96906.66;;;25.01;27.72
54816;BME280;40715;55.752;37.884;2023-02-20T02:49:44;96911.31;;;25.07;27.47
54816;BME280;40715;55.752;37.884;2023-02-20T02:52:15;96906.34;;;25.11;28.41
54816;BME280;40715;55.752;37.884;2023-02-20T02:55:06;96914.91;;;25.14;29.43
54816;BME280;40715;55.752;37.884;2023-02-20T02:57:33;96912.84;;;25.16;29.59
54816;BME280;40715;55.752;37.884;2023-02-20T03:00:05;96916.19;;;25.19;30.17
54816;BME280;40715;55.752;37.884;2023-02-20T03:02:40;96910.78;;;25.19;30.50
54816;BME280;40715;55.752;37.884;2023-02-20T03:05:12;96909.81;;;25.26;30.35
54816;BME280;40715;55.752;37.884;2023-02-20T03:07:42;96911.88;;;25.24;31.03
54816;BME280;40715;55.752;37.884;2023-02-20T03:10:13;96915.19;;;25.26;30.87
54816;BME280;40715;55.752;37.884;2023-02-20T03:12:49;96923.47;;;25.25;31.10
54816;BME280;40715;55.752;37.884;2023-02-20T03:15:25;96930.34;;;25.27;31.17
54816;BME280;40715;55.752;37.884;2023-02-20T03:20:49;96928.25;;;25.23;31.00
54816;BME280;40715;55.752;37.884;2023-02-20T03:23:31;96930.28;;;25.21;31.55
54816;BME280;40715;55.752;37.884;2023-02-20T03:26:03;96933.63;;;25.23;30.43
54816;BME280;40715;55.752;37.884;2023-02-20T03:28:40;96934.84;;;25.20;31.11
54816;BME280;40715;55.752;37.884;2023-02-20T03:31:15;96936.69;;;25.20;31.20
54816;BME280;40715;55.752;37.884;2023-02-20T03:37:14;96924.47;;;25.17;30.95
54816;BME280;40715;55.752;37.884;2023-02-20T03:40:00;96922.31;;;25.12;31.07
54816;BME280;40715;55.752;37.884;2023-02-20T03:42:49;96919.78;;;25.04;31.48
54816;BME280;40715;55.752;37.884;2023-02-20T03:45:38;96918.69;;;24.98;29.51
54816;BME280;40715;55.752;37.884;2023-02-20T03:48:43;96928.16;;;25.16;28.66
54816;BME280;40715;55.752;37.884;2023-02-20T03:51:12;96932.34;;;24.97;29.93
54816;BME280;40715;55.752;37.884;2023-02-20T03:53:40;96929.78;;;24.89;30.65
54816;BME280;40715;55.752;37.884;2023-02-20T03:56:11;96920.03;;;24.88;30.93
54816;BME280;40715;55.752;37.884;2023-02-20T03:58:43;96924.78;;;24.86;30.62
54816;BME280;40715;55.752;37.884;2023-02-20T04:01:13;96922.09;;;24.86;30.59
54816;BME280;40715;55.752;37.884;2023-02-20T04:03:46;96931.38;;;24.83;31.03
54816;BME280;40715;55.752;37.884;2023-02-20T04:06:16;96924.13;;;24.84;30.70
54816;BME280;40715;55.752;37.884;2023-02-20T04:09:08;96929.50;;;24.84;30.81
54816;BME280;40715;55.752;37.884;2023-02-20T04:11:40;96921.00;;;24.80;31.22
54816;BME280;40715;55.752;37.884;2023-02-20T04:14:12;96930.50;;;24.83;31.00
54816;BME280;40715;55.752;37.884;2023-02-20T04:16:45;96921.63;;;24.82;31.37
54816;BME280;40715;55.752;37.884;2023-02-20T04:19:14;96921.03;;;24.87;31.04
54816;BME280;40715;55.752;37.884;2023-02-20T04:21:51;96922.97;;;24.93;31.24
54816;BME280;40715;55.752;37.884;2023-02-20T04:24:23;96918.22;;;24.95;29.44
54816;BME280;40715;55.752;37.884;2023-02-20T04:26:53;96919.13;;;25.02;30.40
54816;BME280;40715;55.752;37.884;2023-02-20T04:29:20;96932.88;;;25.07;29.39
54816;BME280;40715;55.752;37.884;2023-02-20T04:31:47;96928.94;;;25.10;30.25
54816;BME280;40715;55.752;37.884;2023-02-20T04:34:14;96935.16;;;25.10;30.46
54816;BME280;40715;55.752;37.884;2023-02-20T04:36:41;96936.44;;;25.14;30.72
54816;BME280;40715;55.752;37.884;2023-02-20T04:39:08;96944.13;;;25.18;31.05
54816;BME280;40715;55.752;37.884;2023-02-20T04:41:35;96941.91;;;25.21;31.54
54816;BME280;40715;55.752;37.884;2023-02-20T04:44:02;96935.47;;;25.22;31.98
54816;BME280;40715;55.752;37.884;2023-02-20T04:46:47;96936.13;;;25.24;32.24
54816;BME280;40715;55.752;37.884;2023-02-20T04:49:14;96938.16;;;25.22;33.02
54816;BME280;40715;55.752;37.884;2023-02-20T04:51:41;96930.09;;;25.22;31.92
54816;BME280;40715;55.752;37.884;2023-02-20T04:54:08;96933.81;;;25.21;32.47
54816;BME280;40715;55.752;37.884;2023-02-20T04:56:35;96925.91;;;25.20;33.00
54816;BME280;40715;55.752;37.884;2023-02-20T04:59:02;96933.56;;;25.16;32.69
54816;BME280;40715;55.752;37.884;2023-02-20T05:01:29;96932.53;;;25.17;32.50
54816;BME280;40715;55.752;37.884;2023-02-20T05:03:56;96936.44;;;25.14;32.67
54816;BME280;40715;55.752;37.884;2023-02-20T05:06:23;96928.56;;;25.13;32.77
54816;BME280;40715;55.752;37.884;2023-02-20T05:08:50;96929.78;;;25.10;32.16
54816;BME280;40715;55.752;37.884;2023-02-20T05:11:17;96936.19;;;25.09;32.33
54816;BME280;40715;55.752;37.884;2023-02-20T05:13:44;96941.97;;;25.06;29.51
54816;BME280;40715;55.752;37.884;2023-02-20T05:16:11;96916.69;;;24.86;30.84
54816;BME280;40715;55.752;37.884;2023-02-20T05:18:40;96940.66;;;25.02;31.13
54816;BME280;40715;55.752;37.884;2023-02-20T05:21:07;96942.72;;;25.00;31.48
54816;BME280;40715;55.752;37.884;2023-02-20T05:23:52;96932.50;;;24.95;31.48
54816;BME280;40715;55.752;37.884;2023-02-20T05:26:20;96941.63;;;24.94;31.75
54816;BME280;40715;55.752;37.884;2023-02-20T05:28:48;96940.97;;;24.92;31.65
54816;BME280;40715;55.752;37.884;2023-02-20T05:31:15;96946.19;;;24.94;31.83
54816;BME280;40715;55.752;37.884;2023-02-20T05:33:43;96948.88;;;24.94;31.26
54816;BME280;40715;55.752;37.884;2023-02-20T05:36:10;96939.34;;;24.91;30.76
54816;BME280;40715;55.752;37.884;2023-02-20T05:38:37;96946.75;;;24.89;31.17
54816;BME280;40715;55.752;37.884;2023-02-20T05:41:07;96943.16;;;24.82;31.02
54816;BME280;40715;55.752;37.884;2023-02-20T05:43:34;96953.00;;;24.90;31.25
54816;BME280;40715;55.752;37.884;2023-02-20T05:46:01;96962.28;;;24.87;31.15
54816;BME280;40715;55.752;37.884;2023-02-20T05:48:27;96956.69;;;24.89;31.11
54816;BME280;40715;55.752;37.884;2023-02-20T05:50:54;96971.84;;;24.90;31.61
54816;BME280;40715;55.752;37.884;2023-02-20T05:53:21;96963.38;;;24.93;31.40
54816;BME280;40715;55.752;37.884;2023-02-20T05:55:48;96970.88;;;24.97;31.20
54816;BME280;40715;55.752;37.884;2023-02-20T05:58:15;96962.41;;;25.01;31.08
54816;BME280;40715;55.752;37.884;2023-02-20T06:00:42;96959.78;;;25.07;31.12
54816;BME280;40715;55.752;37.884;2023-02-20T06:03:09;96967.09;;;25.13;30.93
54816;BME280;40715;55.752;37.884;2023-02-20T06:05:36;96971.72;;;25.20;30.07
54816;BME280;40715;55.752;37.884;2023-02-20T06:08:03;96967.81;;;25.22;30.67
54816;BME280;40715;55.752;37.884;2023-02-20T06:10:31;96971.16;;;25.24;30.75
54816;BME280;40715;55.752;37.884;2023-02-20T06:12:58;96972.81;;;25.25;28.28
54816;BME280;40715;55.752;37.884;2023-02-20T06:15:25;96969.38;;;25.31;29.67
54816;BME280;40715;55.752;37.884;2023-02-20T06:17:52;96980.59;;;25.35;30.22
54816;BME280;40715;55.752;37.884;2023-02-20T06:20:21;96959.34;;;25.25;30.10
54816;BME280;40715;55.752;37.884;2023-02-20T06:22:48;96984.16;;;25.36;30.17
54816;BME280;40715;55.752;37.884;2023-02-20T06:25:15;96976.25;;;25.34;29.15
54816;BME280;40715;55.752;37.884;2023-02-20T06:27:42;96981.47;;;25.36;29.88
54816;BME280;40715;55.752;37.884;2023-02-20T06:30:27;96986.00;;;25.35;29.42
54816;BME280;40715;55.752;37.884;2023-02-20T06:32:54;96995.13;;;25.34;29.85
54816;BME280;40715;55.752;37.884;2023-02-20T06:35:21;96992.75;;;25.31;29.62
54816;BME280;40715;55.752;37.884;2023-02-20T06:37:48;96990.94;;;25.31;29.97
54816;BME280;40715;55.752;37.884;2023-02-20T06:40:15;96993.81;;;25.30;29.58
54816;BME280;40715;55.752;37.884;2023-02-20T06:42:42;96992.94;;;25.29;29.66
54816;BME280;40715;55.752;37.884;2023-02-20T06:45:09;96996.88;;;25.27;29.74
54816;BME280;40715;55.752;37.884;2023-02-20T06:47:39;96985.91;;;25.28;28.18
54816;BME280;40715;55.752;37.884;2023-02-20T06:50:07;96983.41;;;25.27;28.96
54816;BME280;40715;55.752;37.884;2023-02-20T06:52:35;96987.53;;;25.23;29.08
54816;BME280;40715;55.752;37.884;2023-02-20T06:55:02;96996.44;;;25.23;29.56
54816;BME280;40715;55.752;37.884;2023-02-20T06:57:31;96990.75;;;25.18;28.26
54816;BME280;40715;55.752;37.884;2023-02-20T06:59:58;96993.47;;;25.18;28.99
54816;BME280;40715;55.752;37.884;2023-02-20T07:02:25;96991.44;;;25.20;29.04
54816;BME280;40715;55.752;37.884;2023-02-20T07:04:52;96998.66;;;25.20;29.48
54816;BME280;40715;55.752;37.884;2023-02-20T07:07:19;96999.50;;;25.20;26.84
54816;BME280;40715;55.752;37.884;2023-02-20T07:09:46;96995.13;;;25.19;28.37
54816;BME280;40715;55.752;37.884;2023-02-20T07:12:13;96992.84;;;25.16;28.75
54816;BME280;40715;55.752;37.884;2023-02-20T07:14:40;96978.47;;;25.09;29.18
54816;BME280;40715;55.752;37.884;2023-02-20T07:17:07;96994.91;;;25.14;29.07
54816;BME280;40715;55.752;37.884;2023-02-20T07:19:34;96998.59;;;25.13;28.76
54816;BME280;40715;55.752;37.884;2023-02-20T07:22:01;97004.38;;;25.10;29.33
54816;BME280;40715;55.752;37.884;2023-02-20T07:24:27;96997.75;;;25.12;28.00
54816;BME280;40715;55.752;37.884;2023-02-20T07:26:54;96993.41;;;25.11;27.47
54816;BME280;40715;55.752;37.884;2023-02-20T07:29:20;96997.84;;;25.19;28.24
54816;BME280;40715;55.752;37.884;2023-02-20T07:31:47;97002.63;;;25.24;28.21
54816;BME280;40715;55.752;37.884;2023-02-20T07:34:14;96993.09;;;25.21;27.92
54816;BME280;40715;55.752;37.884;2023-02-20T07:36:41;97008.00;;;25.39;27.87
54816;BME280;40715;55.752;37.884;2023-02-20T07:39:10;97010.31;;;25.42;27.03
54816;BME280;40715;55.752;37.884;2023-02-20T07:41:38;97010.19;;;25.50;28.09
54816;BME280;40715;55.752;37.884;2023-02-20T07:44:05;97010.44;;;25.55;26.36
54816;BME280;40715;55.752;37.884;2023-02-20T07:46:33;97015.91;;;25.62;25.68
54816;BME280;40715;55.752;37.884;2023-02-20T07:49:04;97014.28;;;25.67;26.22
54816;BME280;40715;55.752;37.884;2023-02-20T07:51:32;97008.09;;;25.74;26.33
54816;BME280;40715;55.752;37.884;2023-02-20T07:53:59;97004.00;;;25.78;25.62
54816;BME280;40715;55.752;37.884;2023-02-20T07:56:27;97012.34;;;25.83;25.48
54816;BME280;40715;55.752;37.884;2023-02-20T07:58:54;97014.25;;;25.89;26.90
54816;BME280;40715;55.752;37.884;2023-02-20T08:01:21;97014.91;;;25.91;26.55
54816;BME280;40715;55.752;37.884;2023-02-20T08:03:48;97015.53;;;25.93;24.57
54816;BME280;40715;55.752;37.884;2023-02-20T08:06:17;97024.84;;;25.91;26.41
54816;BME280;40715;55.752;37.884;2023-02-20T08:08:48;97023.63;;;25.93;26.85
54816;BME280;40715;55.752;37.884;2023-02-20T08:11:20;97019.91;;;25.94;27.38
54816;BME280;40715;55.752;37.884;2023-02-20T08:13:48;97024.28;;;25.95;27.42
54816;BME280;40715;55.752;37.884;2023-02-20T08:16:15;97039.41;;;25.96;27.40
54816;BME280;40715;55.752;37.884;2023-02-20T08:18:42;97028.59;;;25.90;27.20
54816;BME280;40715;55.752;37.884;2023-02-20T08:21:09;97035.41;;;25.86;27.54
54816;BME280;40715;55.752;37.884;2023-02-20T08:23:36;97044.13;;;25.88;27.79
54816;BME280;40715;55.752;37.884;2023-02-20T08:26:04;97032.25;;;25.82;27.90
54816;BME280;40715;55.752;37.884;2023-02-20T08:28:31;97036.03;;;25.88;27.82
54816;BME280;40715;55.752;37.884;2023-02-20T08:30:58;97037.03;;;25.87;27.57
54816;BME280;40715;55.752;37.884;2023-02-20T08:33:25;97030.41;;;25.82;27.70
54816;BME280;40715;55.752;37.884;2023-02-20T08:35:52;97034.34;;;25.87;27.93
54816;BME280;40715;55.752;37.884;2023-02-20T08:38:24;97038.91;;;25.86;27.82
54816;BME280;40715;55.752;37.884;2023-02-20T08:40:51;97037.91;;;25.87;27.36
54816;BME280;40715;55.752;37.884;2023-02-20T08:43:18;97043.50;;;25.86;27.62
54816;BME280;40715;55.752;37.884;2023-02-20T08:45:45;97041.00;;;25.84;27.61
54816;BME280;40715;55.752;37.884;2023-02-20T08:48:12;97038.91;;;25.86;27.29
54816;BME280;40715;55.752;37.884;2023-02-20T08:50:39;97041.81;;;25.84;27.85
54816;BME280;40715;55.752;37.884;2023-02-20T08:53:06;97038.66;;;25.81;26.96
54816;BME280;40715;55.752;37.884;2023-02-20T08:55:33;97051.38;;;25.87;26.41
54816;BME280;40715;55.752;37.884;2023-02-20T08:58:00;97049.50;;;25.88;27.11
54816;BME280;40715;55.752;37.884;2023-02-20T09:00:27;97044.97;;;25.88;27.66
54816;BME280;40715;55.752;37.884;2023-02-20T09:02:54;97046.81;;;25.88;27.52
54816;BME280;40715;55.752;37.884;2023-02-20T09:05:21;97057.88;;;25.93;27.04
54816;BME280;40715;55.752;37.884;2023-02-20T09:07:49;97057.28;;;25.97;27.43
54816;BME280;40715;55.752;37.884;2023-02-20T09:10:18;97051.50;;;26.00;26.53
54816;BME280;40715;55.752;37.884;2023-02-20T09:12:45;97051.38;;;26.09;27.33
54816;BME280;40715;55.752;37.884;2023-02-20T09:15:13;97050.84;;;26.20;25.97
54816;BME280;40715;55.752;37.884;2023-02-20T09:17:50;97045.72;;;26.32;26.67
54816;BME280;40715;55.752;37.884;2023-02-20T09:20:19;97026.59;;;26.27;27.22
54816;BME280;40715;55.752;37.884;2023-02-20T09:22:48;97045.38;;;26.42;27.01
54816;BME280;40715;55.752;37.884;2023-02-20T09:25:17;97047.25;;;26.48;26.97
54816;BME280;40715;55.752;37.884;2023-02-20T09:27:44;97037.53;;;26.53;27.15
54816;BME280;40715;55.752;37.884;2023-02-20T09:30:15;97044.00;;;26.59;27.37
54816;BME280;40715;55.752;37.884;2023-02-20T09:32:46;97041.75;;;26.63;27.18
54816;BME280;40715;55.752;37.884;2023-02-20T09:35:27;97040.53;;;26.65;27.06
54816;BME280;40715;55.752;37.884;2023-02-20T09:37:54;97048.63;;;26.65;27.40
54816;BME280;40715;55.752;37.884;2023-02-20T09:40:26;97039.66;;;26.65;27.29
54816;BME280;40715;55.752;37.884;2023-02-20T09:46:20;97062.47;;;26.84;27.13
54816;BME280;40715;55.752;37.884;2023-02-20T09:48:58;97059.88;;;26.69;27.41
54816;BME280;40715;55.752;37.884;2023-02-20T09:51:30;97060.66;;;26.63;27.07
54816;BME280;40715;55.752;37.884;2023-02-20T09:54:13;97058.66;;;26.72;27.17
54816;BME280;40715;55.752;37.884;2023-02-20T09:56:44;97058.56;;;26.65;27.61
54816;BME280;40715;55.752;37.884;2023-02-20T09:59:16;97057.75;;;26.64;27.41
54816;BME280;40715;55.752;37.884;2023-02-20T10:02:15;97058.91;;;26.83;27.48
54816;BME280;40715;55.752;37.884;2023-02-20T10:04:46;97053.81;;;26.67;26.77
54816;BME280;40715;55.752;37.884;2023-02-20T10:07:29;97050.28;;;26.66;27.31
54816;BME280;40715;55.752;37.884;2023-02-20T10:09:58;97045.28;;;26.63;27.18
54816;BME280;40715;55.752;37.884;2023-02-20T10:12:37;97044.44;;;26.63;27.20
54816;BME280;40715;55.752;37.884;2023-02-20T10:15:12;97042.38;;;26.65;26.57
54816;BME280;40715;55.752;37.884;2023-02-20T10:23:31;97052.16;;;26.66;26.92
54816;BME280;40715;55.752;37.884;2023-02-20T10:26:05;97042.56;;;26.57;27.28
54816;BME280;40715;55.752;37.884;2023-02-20T10:28:35;97034.41;;;26.50;27.00
54816;BME280;40715;55.752;37.884;2023-02-20T10:34:10;97049.25;;;26.67;26.96
54816;BME280;40715;55.752;37.884;2023-02-20T10:36:49;97040.44;;;26.52;26.97
54816;BME280;40715;55.752;37.884;2023-02-20T10:39:19;97043.13;;;26.52;26.99
54816;BME280;40715;55.752;37.884;2023-02-20T10:44:37;97036.28;;;26.49;27.28
54816;BME280;40715;55.752;37.884;2023-02-20T10:47:39;97032.06;;;26.68;26.52
54816;BME280;40715;55.752;37.884;2023-02-20T10:50:22;97031.56;;;26.58;26.81
54816;BME280;40715;55.752;37.884;2023-02-20T10:52:58;97034.84;;;26.53;26.76
54816;BME280;40715;55.752;37.884;2023-02-20T10:55:51;97035.94;;;26.66;26.93
54816;BME280;40715;55.752;37.884;2023-02-20T11:00:57;97036.78;;;26.66;26.91
54816;BME280;40715;55.752;37.884;2023-02-20T11:03:47;97043.34;;;26.85;26.29
54816;BME280;40715;55.752;37.884;2023-02-20T11:06:20;97043.91;;;26.74;26.54
54816;BME280;40715;55.752;37.884;2023-02-20T11:08:49;97053.28;;;26.78;26.53
54816;BME280;40715;55.752;37.884;2023-02-20T11:11:20;97045.19;;;26.78;26.48
54816;BME280;40715;55.752;37.884;2023-02-20T11:13:48;97042.28;;;26.80;24.87
54816;BME280;40715;55.752;37.884;2023-02-20T11:16:41;97038.72;;;26.79;25.44
54816;BME280;40715;55.752;37.884;2023-02-20T11:19:16;97031.03;;;26.76;25.67
54816;BME280;40715;55.752;37.884;2023-02-20T11:21:47;97036.09;;;27.48;25.14
54816;BME280;40715;55.752;37.884;2023-02-20T11:24:22;97041.91;;;26.96;25.45
54816;BME280;40715;55.752;37.884;2023-02-20T11:27:05;97037.13;;;26.92;25.45
54816;BME280;40715;55.752;37.884;2023-02-20T11:29:40;97040.91;;;26.97;25.55
54816;BME280;40715;55.752;37.884;2023-02-20T11:32:37;97043.91;;;27.23;25.33
54816;BME280;40715;55.752;37.884;2023-02-20T11:37:41;97031.59;;;27.07;25.20
54816;BME280;40715;55.752;37.884;2023-02-20T11:40:26;97034.09;;;27.08;25.35
54816;BME280;40715;55.752;37.884;2023-02-20T11:42:54;97044.47;;;27.11;25.14
54816;BME280;40715;55.752;37.884;2023-02-20T11:45:27;97046.53;;;27.09;25.23
54816;BME280;40715;55.752;37.884;2023-02-20T11:48:15;97056.78;;;27.27;25.05
54816;BME280;40715;55.752;37.884;2023-02-20T11:50:45;97056.75;;;27.14;25.17
54816;BME280;40715;55.752;37.884;2023-02-20T11:53:20;97048.88;;;27.12;25.25
54816;BME280;40715;55.752;37.884;2023-02-20T11:55:49;97057.78;;;27.13;25.24
54816;BME280;40715;55.752;37.884;2023-02-20T11:58:31;97051.78;;;27.11;25.26
54816;BME280;40715;55.752;37.884;2023-02-20T12:00:58;97059.66;;;27.12;24.86
54816;BME280;40715;55.752;37.884;2023-02-20T12:03:29;97055.72;;;27.15;25.18
54816;BME280;40715;55.752;37.884;2023-02-20T12:06:52;97060.16;;;27.29;24.94
54816;BME280;40715;55.752;37.884;2023-02-20T12:09:16;97046.75;;;27.08;24.94
54816;BME280;40715;55.752;37.884;2023-02-20T12:11:44;97058.41;;;27.08;25.14
54816;BME280;40715;55.752;37.884;2023-02-20T12:14:12;97055.91;;;27.07;25.17
54816;BME280;40715;55.752;37.884;2023-02-20T12:19:42;97053.84;;;27.15;25.18
54816;BME280;40715;55.752;37.884;2023-02-20T12:22:31;97058.41;;;27.15;25.21
54816;BME280;40715;55.752;37.884;2023-02-20T12:25:22;97059.88;;;27.17;25.57
54816;BME280;40715;55.752;37.884;2023-02-20T12:31:10;97057.38;;;27.16;25.39
54816;BME280;40715;55.752;37.884;2023-02-20T12:36:42;97061.31;;;27.13;25.11
54816;BME280;40715;55.752;37.884;2023-02-20T12:54:59;97066.19;;;26.83;24.70
54816;BME280;40715;55.752;37.884;2023-02-20T12:57:42;97056.66;;;26.87;24.82
54816;BME280;40715;55.752;37.884;2023-02-20T13:02:48;97065.31;;;26.76;24.69
54816;BME280;40715;55.752;37.884;2023-02-20T13:05:21;97061.16;;;26.73;24.88
54816;BME280;40715;55.752;37.884;2023-02-20T13:08:00;97003.66;;;26.44;24.76
54816;BME280;40715;55.752;37.884;2023-02-20T13:10:32;97051.94;;;26.67;24.66
54816;BME280;40715;55.752;37.884;2023-02-20T13:13:00;97054.66;;;26.67;24.27
54816;BME280;40715;55.752;37.884;2023-02-20T13:15:39;97056.53;;;26.67;23.92
54816;BME280;40715;55.752;37.884;2023-02-20T13:21:39;97059.63;;;26.64;23.80
54816;BME280;40715;55.752;37.884;2023-02-20T13:23:46;97057.34;;;26.67;24.04
54816;BME280;40715;55.752;37.884;2023-02-20T13:31:42;97058.19;;;26.68;23.87
54816;BME280;40715;55.752;37.884;2023-02-20T13:52:42;97058.13;;;26.90;23.66
54816;BME280;40715;55.752;37.884;2023-02-20T13:58:10;97066.22;;;26.90;23.15
54816;BME280;40715;55.752;37.884;2023-02-20T14:00:50;97056.00;;;26.78;23.63
54816;BME280;40715;55.752;37.884;2023-02-20T14:03:30;97059.09;;;26.75;23.59
54816;BME280;40715;55.752;37.884;2023-02-20T14:06:13;97068.34;;;26.66;23.60
54816;BME280;40715;55.752;37.884;2023-02-20T14:08:47;97064.19;;;26.63;23.56
54816;BME280;40715;55.752;37.884;2023-02-20T14:11:29;97062.94;;;26.66;24.11
54816;BME280;40715;55.752;37.884;2023-02-20T14:13:58;97063.09;;;26.58;24.04
54816;BME280;40715;55.752;37.884;2023-02-20T14:16:34;97068.91;;;26.55;24.06
54816;BME280;40715;55.752;37.884;2023-02-20T14:19:05;97072.22;;;26.50;24.35
54816;BME280;40715;55.752;37.884;2023-02-20T14:21:35;97069.72;;;26.48;24.14
54816;BME280;40715;55.752;37.884;2023-02-20T14:26:42;97054.50;;;26.41;23.95
54816;BME280;40715;55.752;37.884;2023-02-20T14:29:29;97061.22;;;26.51;24.44
54816;BME280;40715;55.752;37.884;2023-02-20T14:31:59;97073.78;;;26.38;23.93
54816;BME280;40715;55.752;37.884;2023-02-20T14:34:46;97069.84;;;26.40;24.38
54816;BME280;40715;55.752;37.884;2023-02-20T14:40:56;97070.84;;;26.32;23.88
54816;BME280;40715;55.752;37.884;2023-02-20T14:43:08;97072.47;;;26.90;23.71
54816;BME280;40715;55.752;37.884;2023-02-20T14:45:38;97061.63;;;26.20;24.28
54816;BME280;40715;55.752;37.884;2023-02-20T14:48:19;97066.53;;;26.10;24.26
54816;BME280;40715;55.752;37.884;2023-02-20T14:50:47;97078.34;;;26.09;24.69
54816;BME280;40715;55.752;37.884;2023-02-20T14:53:17;97079.78;;;26.05;24.65
54816;BME280;40715;55.752;37.884;2023-02-20T14:55:48;97084.34;;;26.04;24.57
54816;BME280;40715;55.752;37.884;2023-02-20T14:58:19;97077.06;;;26.05;24.58
54816;BME280;40715;55.752;37.884;2023-02-20T15:00:48;97081.00;;;26.02;24.66